Kezdőlap
METAR-TAF:

METAR-TAF

Repülőterek :

Viña del Mar, Chile

földrajzi szélesség: 32-56-59S, földrajzi hosszúság: 71-28-43W, magasság: 141 m

Jelenlegi meteorológiai megfigyelések

A jelentés 28 perccel ezelõtt készült, 23:00 UTC
Nyugat-északnyugati szél 4 kt
Hőmérséklet 11°C
Páratartalom 87%
Légköri nyomás 1016 hPa
Látótávolság 10 km, vagy több
felhőtlen 1500 m magasságban, és nincs gomolyfelhõ

METAR: SCVM 222300Z 30004KT CAVOK 11/09 Q1016

Idő: 19:28 (23:28 UTC)


TAF: hiányzik

Meteorológiai megfigyelések és előrejelzések több, mint 4000 repülőtéren (METAR és TAF jelentéseket).

A térképen piros és sárga pontok jelzik az elérhető meteorológiai állomásokat.

Mozgassa az egeret a pont fölött, hogy megjelenjen az állomás neve.

Azután kattintson az időjárási megfigyelések és előrejelzések megtekintéséhez.

A térkép megváltoztatása: kattintson a fekete keresztel jelölt zöld gombra ráközelítéshez, a vonallal jelölt zöld gombra távolításhoz, vagy a zöld nyilakra a szomszédos térképek eléréséhez.


METAR-TAF: